Time;durP1;ratioP1;P1;durP2;ratioP2;P2;SDS_P1;SDS_P2;PMS_P1;PMS_P2;Temp;Humidity;BMP_temperature;BMP_pressure;BME280_temperature;BME280_humidity;BME280_pressure;Samples;Min_cycle;Max_cycle;Signal;HPM_P1;HPM_P2
2023/08/08 00:00:22;;;;;;;2.50;1.70;;;14.70;94.00;;;;;;5073015;28;20492;-66
2023/08/08 00:02:49;;;;;;;2.30;2.00;;;14.60;93.60;;;;;;5072543;28;20438;-67
2023/08/08 00:05:16;;;;;;;2.33;1.63;;;14.60;93.80;;;;;;5067721;28;20422;-66
2023/08/08 00:07:42;;;;;;;3.60;1.80;;;14.60;93.90;;;;;;5068789;28;20435;-65
2023/08/08 00:10:11;;;;;;;2.40;1.55;;;14.60;94.10;;;;;;5066672;28;20427;-66
2023/08/08 00:12:37;;;;;;;2.70;2.20;;;14.50;94.20;;;;;;5068993;28;20801;-66
2023/08/08 00:15:05;;;;;;;2.35;1.80;;;14.50;94.20;;;;;;5070044;28;20442;-66
2023/08/08 00:17:32;;;;;;;3.50;2.20;;;14.50;94.40;;;;;;5067962;28;20419;-67
2023/08/08 00:19:59;;;;;;;4.60;2.20;;;14.40;95.00;;;;;;5075780;28;20431;-67
2023/08/08 00:22:26;;;;;;;4.55;2.30;;;14.40;95.10;;;;;;5065623;28;20514;-66
2023/08/08 00:24:52;;;;;;;3.95;2.67;;;14.40;95.10;;;;;;5074249;28;20433;-66
2023/08/08 00:27:21;;;;;;;5.32;2.78;;;14.30;95.10;;;;;;5065837;28;20929;-65
2023/08/08 00:29:48;;;;;;;2.63;2.33;;;14.20;95.10;;;;;;5060221;28;20436;-67
2023/08/08 00:32:14;;;;;;;2.72;2.22;;;14.30;95.30;;;;;;5067452;28;20435;-67
2023/08/08 00:34:41;;;;;;;2.50;2.05;;;14.20;95.70;;;;;;5065130;28;20422;-66
2023/08/08 00:37:08;;;;;;;3.80;2.70;;;14.20;95.80;;;;;;5067484;28;20794;-65
2023/08/08 00:39:34;;;;;;;3.38;2.20;;;14.10;95.80;;;;;;5085675;28;20450;-66
2023/08/08 00:42:01;;;;;;;3.90;2.47;;;14.10;95.60;;;;;;5062528;28;20430;-66
2023/08/08 00:44:29;;;;;;;3.92;2.50;;;14.00;95.80;;;;;;5073335;28;20431;-65
2023/08/08 00:46:56;;;;;;;3.00;2.50;;;14.00;95.90;;;;;;5069430;28;20435;-66
2023/08/08 00:49:24;;;;;;;3.30;2.40;;;14.00;96.20;;;;;;5064288;28;20438;-66
2023/08/08 00:51:51;;;;;;;2.60;2.10;;;14.00;96.10;;;;;;5074826;28;20667;-66
2023/08/08 00:54:18;;;;;;;2.60;2.28;;;13.90;96.10;;;;;;5083151;28;20883;-66
2023/08/08 00:56:45;;;;;;;4.72;2.30;;;13.90;96.70;;;;;;5081306;28;20432;-66
2023/08/08 00:59:14;;;;;;;3.20;2.10;;;13.90;96.10;;;;;;5066380;28;20427;-66
2023/08/08 01:01:42;;;;;;;3.80;2.78;;;13.80;96.00;;;;;;5072219;28;20422;-66
2023/08/08 01:04:09;;;;;;;2.90;2.40;;;13.90;96.00;;;;;;5076534;28;21089;-66
2023/08/08 01:06:42;;;;;;;3.40;2.42;;;13.90;96.00;;;;;;5065347;28;20436;-66
2023/08/08 01:09:14;;;;;;;3.05;2.45;;;13.80;95.90;;;;;;5071545;28;20426;-66
2023/08/08 01:11:42;;;;;;;3.10;2.30;;;13.80;95.80;;;;;;5074982;28;20439;-66
2023/08/08 01:14:10;;;;;;;3.10;2.30;;;13.80;95.90;;;;;;5097889;22;20443;-70
2023/08/08 01:16:38;;;;;;;2.50;1.90;;;13.80;96.00;;;;;;5107799;28;20431;-70
2023/08/08 01:19:08;;;;;;;2.78;2.10;;;13.80;96.00;;;;;;5111348;28;20707;-70
2023/08/08 01:21:40;;;;;;;2.28;2.08;;;13.70;96.10;;;;;;5109066;28;20833;-70
2023/08/08 01:24:20;;;;;;;2.90;2.10;;;13.70;96.20;;;;;;5097614;28;20507;-70
2023/08/08 01:26:47;;;;;;;3.33;2.35;;;13.70;96.40;;;;;;5083621;28;20448;-69
2023/08/08 01:29:14;;;;;;;3.00;2.40;;;13.70;96.50;;;;;;5079773;28;20564;-70
2023/08/08 01:31:41;;;;;;;3.75;2.20;;;13.60;96.70;;;;;;5082039;28;20441;-69
2023/08/08 01:34:08;;;;;;;3.08;2.50;;;13.60;96.80;;;;;;5088259;28;20434;-70
2023/08/08 01:36:43;;;;;;;3.63;2.58;;;13.60;96.90;;;;;;5086144;28;20430;-70
2023/08/08 01:39:15;;;;;;;4.20;2.58;;;13.50;97.20;;;;;;5088351;28;20428;-69
2023/08/08 01:41:44;;;;;;;3.33;2.50;;;13.50;97.10;;;;;;5089396;28;20429;-71
2023/08/08 01:44:11;;;;;;;3.60;2.40;;;13.50;97.10;;;;;;5090181;28;20434;-70
2023/08/08 01:46:39;;;;;;;3.05;2.00;;;13.50;97.20;;;;;;5086567;28;20460;-70
2023/08/08 01:49:05;;;;;;;2.97;2.10;;;13.50;97.40;;;;;;5084761;28;20477;-69
2023/08/08 01:51:32;;;;;;;2.50;2.30;;;13.50;97.40;;;;;;5088597;28;20449;-70
2023/08/08 01:53:59;;;;;;;3.80;2.40;;;13.50;97.50;;;;;;5090476;28;20433;-70
2023/08/08 01:56:26;;;;;;;3.05;2.30;;;13.50;97.40;;;;;;5085042;28;20436;-70
2023/08/08 01:58:54;;;;;;;2.90;2.20;;;13.50;97.50;;;;;;5087714;28;20577;-70
2023/08/08 02:01:21;;;;;;;2.90;2.45;;;13.50;97.70;;;;;;5085196;28;20435;-70
2023/08/08 02:03:47;;;;;;;4.10;2.28;;;13.40;97.70;;;;;;5089209;28;20428;-69
2023/08/08 02:06:14;;;;;;;4.10;2.63;;;13.50;97.90;;;;;;5084583;28;20427;-70
2023/08/08 02:08:41;;;;;;;3.08;2.33;;;13.40;98.10;;;;;;5081424;28;20452;-70
2023/08/08 02:11:07;;;;;;;4.53;2.30;;;13.40;98.10;;;;;;5086381;28;20425;-69
2023/08/08 02:13:34;;;;;;;2.90;2.30;;;13.40;98.20;;;;;;5089080;28;20437;-70
2023/08/08 02:16:02;;;;;;;4.03;2.70;;;13.40;98.60;;;;;;5087037;28;20773;-70
2023/08/08 02:18:29;;;;;;;3.92;3.00;;;13.40;98.60;;;;;;5088395;28;20433;-70
2023/08/08 02:20:56;;;;;;;4.32;2.70;;;13.40;98.80;;;;;;5081478;28;20438;-69
2023/08/08 02:23:22;;;;;;;5.28;3.00;;;13.40;98.90;;;;;;5088640;28;20422;-69
2023/08/08 02:25:49;;;;;;;3.42;2.60;;;13.30;99.00;;;;;;5082606;28;20452;-70
2023/08/08 02:28:16;;;;;;;5.15;2.85;;;13.30;99.10;;;;;;5082542;28;20433;-70
2023/08/08 02:30:42;;;;;;;3.25;2.47;;;13.30;99.30;;;;;;5086202;28;20916;-69
2023/08/08 02:33:10;;;;;;;3.30;2.50;;;13.30;99.40;;;;;;5089413;28;20425;-69
2023/08/08 02:35:38;;;;;;;4.43;2.47;;;13.20;99.60;;;;;;5083496;28;20433;-70
2023/08/08 02:38:05;;;;;;;3.40;2.80;;;13.20;99.90;;;;;;5095385;28;20418;-69
2023/08/08 02:40:32;;;;;;;3.60;2.28;;;13.20;99.90;;;;;;5103166;28;20433;-70
2023/08/08 02:42:59;;;;;;;3.20;2.50;;;13.20;99.80;;;;;;5099293;28;20429;-69
2023/08/08 02:45:26;;;;;;;3.90;2.72;;;13.10;99.90;;;;;;5105026;28;20431;-70
2023/08/08 02:47:53;;;;;;;3.75;2.38;;;13.20;99.90;;;;;;5089558;28;20908;-69
2023/08/08 02:50:21;;;;;;;3.65;2.22;;;13.20;99.80;;;;;;5086485;28;20434;-70
2023/08/08 02:52:47;;;;;;;2.95;2.15;;;13.10;99.70;;;;;;5088712;28;20448;-69
2023/08/08 02:55:14;;;;;;;2.60;2.37;;;13.10;99.60;;;;;;5087277;28;20456;-69
2023/08/08 02:57:41;;;;;;;2.70;2.10;;;13.10;99.80;;;;;;5086743;28;20460;-69
2023/08/08 03:00:10;;;;;;;4.30;2.17;;;13.20;99.60;;;;;;5086240;28;20511;-70
2023/08/08 03:02:37;;;;;;;4.00;2.30;;;13.10;99.50;;;;;;5087500;28;20483;-72
2023/08/08 03:05:04;;;;;;;3.70;2.10;;;13.20;99.30;;;;;;5086203;28;20432;-70
2023/08/08 03:07:32;;;;;;;3.47;2.00;;;13.20;99.20;;;;;;5087036;28;20425;-69
2023/08/08 03:09:59;;;;;;;3.22;1.90;;;13.20;99.20;;;;;;5085706;28;20946;-70
2023/08/08 03:12:25;;;;;;;3.30;2.15;;;13.20;99.10;;;;;;5083924;28;20432;-71
2023/08/08 03:14:52;;;;;;;2.75;1.92;;;13.20;99.40;;;;;;5088251;28;20425;-71
2023/08/08 03:17:19;;;;;;;3.95;1.98;;;13.10;99.30;;;;;;5083534;28;20441;-70
2023/08/08 03:19:46;;;;;;;4.50;2.17;;;13.10;99.50;;;;;;5088154;28;20804;-69
2023/08/08 03:22:12;;;;;;;3.47;1.83;;;13.10;99.20;;;;;;5087624;28;20405;-70
2023/08/08 03:24:40;;;;;;;2.42;1.75;;;13.10;99.20;;;;;;5082791;28;20501;-69
2023/08/08 03:27:07;;;;;;;4.00;2.10;;;13.10;99.10;;;;;;5087398;28;20445;-69
2023/08/08 03:29:34;;;;;;;4.30;2.30;;;13.10;98.90;;;;;;5079684;28;20909;-70
2023/08/08 03:32:01;;;;;;;3.40;2.40;;;13.10;99.00;;;;;;5086118;28;20430;-70
2023/08/08 03:34:28;;;;;;;3.00;1.70;;;13.10;99.00;;;;;;5079366;28;20419;-69
2023/08/08 03:36:55;;;;;;;3.05;1.83;;;13.10;98.70;;;;;;5084716;28;20430;-68
2023/08/08 03:39:21;;;;;;;2.90;1.95;;;13.10;98.60;;;;;;5084388;28;20499;-70
2023/08/08 03:41:49;;;;;;;2.70;1.90;;;13.10;98.90;;;;;;5089529;28;20422;-69
2023/08/08 03:44:16;;;;;;;3.55;2.20;;;13.10;98.80;;;;;;5083009;28;20427;-69
2023/08/08 03:46:43;;;;;;;3.28;2.00;;;13.10;99.00;;;;;;5082592;28;20427;-69
2023/08/08 03:49:10;;;;;;;4.72;1.90;;;13.10;98.80;;;;;;5087061;28;20434;-69
2023/08/08 03:51:36;;;;;;;3.10;1.83;;;13.10;98.90;;;;;;5082786;28;20438;-70
2023/08/08 03:54:03;;;;;;;3.40;2.50;;;13.10;98.90;;;;;;5085645;28;20421;-70
2023/08/08 03:56:30;;;;;;;4.55;2.00;;;13.10;99.50;;;;;;5081797;28;20410;-70
2023/08/08 03:58:58;;;;;;;5.07;2.20;;;13.10;99.40;;;;;;5081393;28;20429;-69
2023/08/08 04:01:25;;;;;;;4.00;2.10;;;13.00;99.30;;;;;;5080752;28;20465;-70
2023/08/08 04:03:52;;;;;;;3.90;1.90;;;13.00;99.40;;;;;;5084218;28;20426;-70
2023/08/08 04:06:19;;;;;;;5.30;1.88;;;13.00;99.40;;;;;;5088298;28;20429;-70
2023/08/08 04:08:45;;;;;;;2.78;2.17;;;13.00;99.50;;;;;;5085233;28;20429;-70
2023/08/08 04:11:12;;;;;;;4.20;2.20;;;13.00;99.40;;;;;;5086983;28;20920;-69
2023/08/08 04:13:39;;;;;;;4.50;2.10;;;13.10;99.50;;;;;;5089519;28;20437;-68
2023/08/08 04:16:07;;;;;;;5.45;2.40;;;13.00;99.50;;;;;;5086654;28;20458;-69
2023/08/08 04:18:33;;;;;;;2.90;2.00;;;13.00;99.60;;;;;;5089119;28;20437;-70
2023/08/08 04:21:00;;;;;;;4.70;2.30;;;13.00;99.80;;;;;;5086552;28;20423;-69
2023/08/08 04:23:27;;;;;;;2.30;2.00;;;13.00;99.70;;;;;;5090010;28;20425;-69
2023/08/08 04:25:54;;;;;;;3.90;2.40;;;13.00;99.80;;;;;;5085399;28;20429;-70
2023/08/08 04:28:21;;;;;;;4.70;2.40;;;13.00;99.90;;;;;;5092491;28;20437;-71
2023/08/08 04:30:47;;;;;;;4.17;2.30;;;13.00;99.90;;;;;;5096144;28;20464;-70
2023/08/08 04:33:16;;;;;;;5.37;2.63;;;13.00;99.90;;;;;;5096423;28;20433;-71
2023/08/08 04:35:42;;;;;;;2.50;2.20;;;13.00;99.90;;;;;;5088916;28;20972;-72
2023/08/08 04:38:09;;;;;;;4.20;2.50;;;13.00;99.90;;;;;;5093065;28;20406;-71
2023/08/08 04:40:36;;;;;;;3.97;2.80;;;13.00;99.90;;;;;;5089986;28;20436;-71
2023/08/08 04:43:03;;;;;;;3.80;2.42;;;13.00;99.90;;;;;;5086462;28;20910;-71
2023/08/08 04:45:29;;;;;;;2.85;2.38;;;13.00;99.90;;;;;;5087534;28;21038;-69
2023/08/08 04:47:56;;;;;;;4.18;2.30;;;13.00;99.90;;;;;;5082623;28;20459;-69
2023/08/08 04:50:24;;;;;;;5.10;3.00;;;13.00;99.90;;;;;;5080124;28;20429;-69
2023/08/08 04:52:51;;;;;;;5.00;2.78;;;13.00;99.90;;;;;;5079253;28;20422;-71
2023/08/08 04:55:18;;;;;;;3.78;2.70;;;13.00;99.90;;;;;;5085612;28;20920;-69
2023/08/08 04:57:44;;;;;;;5.65;3.00;;;13.00;99.90;;;;;;5089445;28;20432;-69
2023/08/08 05:00:13;;;;;;;4.95;2.95;;;13.00;99.90;;;;;;5090263;28;20497;-68
2023/08/08 05:02:41;;;;;;;5.05;2.70;;;13.00;99.90;;;;;;5086202;28;20430;-68
2023/08/08 05:05:09;;;;;;;6.03;3.20;;;13.00;99.90;;;;;;5090209;28;20475;-67
2023/08/08 05:07:37;;;;;;;7.60;3.05;;;13.10;99.90;;;;;;5089830;28;20422;-70
2023/08/08 05:10:05;;;;;;;4.80;3.05;;;13.10;99.90;;;;;;5081100;28;20439;-67
2023/08/08 05:12:32;;;;;;;6.40;4.05;;;13.10;99.90;;;;;;5080396;28;20427;-68
2023/08/08 05:14:58;;;;;;;4.75;3.17;;;13.20;99.90;;;;;;5086898;28;20445;-68
2023/08/08 05:17:25;;;;;;;7.10;4.13;;;13.20;99.90;;;;;;5087793;28;20427;-68
2023/08/08 05:19:52;;;;;;;4.78;3.30;;;13.30;99.90;;;;;;5097104;28;20450;-65
2023/08/08 05:22:19;;;;;;;5.57;3.40;;;13.40;99.90;;;;;;5106398;28;20435;-67
2023/08/08 05:24:47;;;;;;;5.38;3.35;;;13.50;99.90;;;;;;5102966;28;20418;-67
2023/08/08 05:27:13;;;;;;;5.82;3.60;;;13.50;99.90;;;;;;5084519;28;20438;-68
2023/08/08 05:29:40;;;;;;;7.17;3.90;;;13.60;99.90;;;;;;5076184;28;20425;-68
2023/08/08 05:32:08;;;;;;;6.50;3.80;;;13.70;99.90;;;;;;5081478;28;20424;-69
2023/08/08 05:34:35;;;;;;;5.05;3.72;;;13.80;99.90;;;;;;5077440;28;20403;-67
2023/08/08 05:37:03;;;;;;;5.75;3.90;;;13.80;99.90;;;;;;5085508;28;20433;-70
2023/08/08 05:39:30;;;;;;;5.53;3.67;;;13.90;99.90;;;;;;5084972;28;20954;-70
2023/08/08 05:41:58;;;;;;;5.60;3.90;;;14.00;99.90;;;;;;5076082;28;20937;-70
2023/08/08 05:44:25;;;;;;;5.63;4.07;;;14.00;99.90;;;;;;5080995;28;20428;-68
2023/08/08 05:46:52;;;;;;;4.57;3.80;;;14.10;99.90;;;;;;5081729;28;20441;-72
2023/08/08 05:49:19;;;;;;;7.38;3.70;;;14.10;99.90;;;;;;5081741;28;20421;-73
2023/08/08 05:51:46;;;;;;;8.05;3.50;;;14.10;99.90;;;;;;5083440;28;20421;-70
2023/08/08 05:54:12;;;;;;;6.93;4.18;;;14.20;99.90;;;;;;5083071;28;20407;-70
2023/08/08 05:56:39;;;;;;;5.78;4.30;;;14.20;99.90;;;;;;5088438;28;20429;-72
2023/08/08 05:59:07;;;;;;;5.57;3.25;;;14.20;99.90;;;;;;5086838;28;20796;-70
2023/08/08 06:01:35;;;;;;;4.90;3.50;;;14.20;99.90;;;;;;5084512;28;20949;-69
2023/08/08 06:04:03;;;;;;;5.70;3.70;;;14.20;99.90;;;;;;5081742;28;20433;-69
2023/08/08 06:06:30;;;;;;;5.03;3.65;;;14.30;99.90;;;;;;5082235;28;20495;-69
2023/08/08 06:08:56;;;;;;;4.05;3.50;;;14.20;99.90;;;;;;5089586;28;20911;-70
2023/08/08 06:11:23;;;;;;;6.00;3.67;;;14.30;99.90;;;;;;5077393;28;20441;-68
2023/08/08 06:13:50;;;;;;;8.13;3.83;;;14.30;99.90;;;;;;5086768;28;20424;-67
2023/08/08 06:16:18;;;;;;;6.60;4.07;;;14.30;99.90;;;;;;5083684;28;20422;-69
2023/08/08 06:18:45;;;;;;;7.20;3.60;;;14.40;99.90;;;;;;5085624;28;20499;-69
2023/08/08 06:21:11;;;;;;;4.43;3.53;;;14.40;99.90;;;;;;5081376;28;20425;-69
2023/08/08 06:23:38;;;;;;;5.05;3.40;;;14.50;99.90;;;;;;5082872;28;20429;-69
2023/08/08 06:26:05;;;;;;;6.07;3.20;;;14.60;99.90;;;;;;5090163;28;20418;-69
2023/08/08 06:28:32;;;;;;;6.80;3.70;;;14.60;99.90;;;;;;5088955;28;20425;-69
2023/08/08 06:30:59;;;;;;;5.85;3.30;;;14.70;99.90;;;;;;5083605;28;20879;-70
2023/08/08 06:33:28;;;;;;;6.60;3.37;;;14.80;99.90;;;;;;5089501;28;20421;-69
2023/08/08 06:35:55;;;;;;;5.10;3.00;;;14.90;99.80;;;;;;5089346;28;20421;-69
2023/08/08 06:38:22;;;;;;;5.60;3.13;;;15.10;98.90;;;;;;5096681;28;20430;-68
2023/08/08 06:40:49;;;;;;;5.22;3.40;;;15.20;98.20;;;;;;5088304;28;20915;-69
2023/08/08 06:43:16;;;;;;;5.57;3.10;;;15.20;97.90;;;;;;5089802;28;20414;-67
2023/08/08 06:45:42;;;;;;;6.75;3.20;;;15.30;97.80;;;;;;5087276;28;20422;-68
2023/08/08 06:48:10;;;;;;;6.57;3.00;;;15.30;97.40;;;;;;5088724;28;20924;-68
2023/08/08 06:50:38;;;;;;;6.87;3.33;;;15.40;97.00;;;;;;5089767;28;20666;-67
2023/08/08 06:53:05;;;;;;;4.90;2.92;;;15.40;96.80;;;;;;5087886;28;20915;-67
2023/08/08 06:55:32;;;;;;;7.32;2.70;;;15.40;96.70;;;;;;5089218;28;20432;-67
2023/08/08 06:57:59;;;;;;;5.05;2.90;;;15.40;96.60;;;;;;5088973;28;20919;-67
2023/08/08 07:00:27;;;;;;;5.65;2.85;;;15.40;96.90;;;;;;5086530;28;20438;-67
2023/08/08 07:02:53;;;;;;;4.55;2.78;;;15.40;96.80;;;;;;5084507;28;20427;-67
2023/08/08 07:05:22;;;;;;;5.75;3.25;;;15.50;96.50;;;;;;5075839;28;20467;-66
2023/08/08 07:07:50;;;;;;;6.60;4.35;;;15.50;96.60;;;;;;5088840;28;20518;-67
2023/08/08 07:10:17;;;;;;;5.28;2.60;;;15.60;96.60;;;;;;5082486;28;20772;-67
2023/08/08 07:12:43;;;;;;;4.68;2.70;;;15.60;96.40;;;;;;5086399;28;20437;-67
2023/08/08 07:17:39;;;;;;;4.00;2.80;;;15.80;95.60;;;;;;5065735;28;20494;-68
2023/08/08 07:20:08;;;;;;;6.10;2.60;;;16.00;95.20;;;;;;5076075;28;20891;-68
2023/08/08 07:22:35;;;;;;;6.18;3.05;;;16.10;95.20;;;;;;5071888;28;20580;-68
2023/08/08 07:25:04;;;;;;;7.00;3.10;;;16.10;95.20;;;;;;5063092;28;20435;-68
2023/08/08 07:27:31;;;;;;;4.22;2.80;;;16.20;94.70;;;;;;5053616;28;20419;-68
2023/08/08 07:29:58;;;;;;;3.95;2.75;;;16.30;94.50;;;;;;5044306;28;20521;-69
2023/08/08 07:32:25;;;;;;;7.18;3.33;;;16.40;94.50;;;;;;5054173;28;20448;-67
2023/08/08 07:34:52;;;;;;;5.55;2.90;;;16.50;93.70;;;;;;5047461;28;20438;-68
2023/08/08 07:37:19;;;;;;;4.47;3.10;;;16.60;93.20;;;;;;5057538;28;20415;-68
2023/08/08 07:39:45;;;;;;;7.60;3.00;;;16.60;93.50;;;;;;5059554;28;20434;-69
2023/08/08 07:42:13;;;;;;;5.35;3.00;;;16.60;93.50;;;;;;5057567;28;20428;-69
2023/08/08 07:44:40;;;;;;;5.70;3.40;;;16.60;93.50;;;;;;5056584;28;20768;-69
2023/08/08 07:47:07;;;;;;;4.13;2.90;;;16.70;93.20;;;;;;5051456;28;20441;-67
2023/08/08 07:49:34;;;;;;;7.50;3.13;;;16.70;93.10;;;;;;5052888;28;20435;-69
2023/08/08 07:52:01;;;;;;;5.90;3.05;;;16.80;92.90;;;;;;5049846;28;20457;-68
2023/08/08 07:54:27;;;;;;;5.72;3.10;;;16.80;92.60;;;;;;5056626;28;20449;-69
2023/08/08 07:56:55;;;;;;;4.47;3.05;;;16.90;92.50;;;;;;5053581;28;20778;-69
2023/08/08 07:59:23;;;;;;;5.88;3.35;;;16.80;92.90;;;;;;5052929;28;20421;-69
2023/08/08 08:01:50;;;;;;;4.95;3.60;;;16.80;92.20;;;;;;5047660;28;20520;-70
2023/08/08 08:04:17;;;;;;;5.60;3.10;;;16.90;92.80;;;;;;5055871;28;20433;-68
2023/08/08 08:06:44;;;;;;;4.95;3.00;;;17.10;92.20;;;;;;5051170;28;20420;-69
2023/08/08 08:09:10;;;;;;;5.65;3.60;;;17.30;91.70;;;;;;5053274;28;20531;-68
2023/08/08 08:11:37;;;;;;;6.70;3.50;;;17.40;91.40;;;;;;5055922;28;20411;-68
2023/08/08 08:14:04;;;;;;;5.78;3.25;;;17.40;91.40;;;;;;5045570;28;20433;-69
2023/08/08 08:16:32;;;;;;;5.90;3.33;;;17.50;91.40;;;;;;5051687;28;20450;-69
2023/08/08 08:18:59;;;;;;;7.20;3.60;;;17.60;90.70;;;;;;5055259;28;20435;-69
2023/08/08 08:21:26;;;;;;;4.55;2.90;;;17.60;90.70;;;;;;5055441;28;20420;-68
2023/08/08 08:23:53;;;;;;;6.35;3.90;;;17.70;90.30;;;;;;5060309;28;20436;-70
2023/08/08 08:26:19;;;;;;;4.40;3.50;;;17.70;89.70;;;;;;5044210;28;20431;-69
2023/08/08 08:28:46;;;;;;;6.63;3.92;;;17.50;90.10;;;;;;5052717;28;20438;-68
2023/08/08 08:31:13;;;;;;;6.30;3.60;;;17.50;90.70;;;;;;5051840;28;20412;-69
2023/08/08 08:33:41;;;;;;;8.48;4.30;;;17.60;90.00;;;;;;5051247;28;20419;-69
2023/08/08 08:36:08;;;;;;;5.43;3.70;;;17.80;89.50;;;;;;5045431;28;20433;-68
2023/08/08 08:38:34;;;;;;;5.10;3.92;;;17.80;89.80;;;;;;5057301;28;20886;-69
2023/08/08 08:41:03;;;;;;;4.43;3.70;;;17.70;90.00;;;;;;5057955;28;20431;-69
2023/08/08 08:43:31;;;;;;;5.45;3.83;;;17.60;90.10;;;;;;5047005;28;20433;-69
2023/08/08 08:46:02;;;;;;;5.35;3.90;;;17.60;89.40;;;;;;5045356;28;20836;-68
2023/08/08 08:48:29;;;;;;;4.82;3.60;;;17.50;88.90;;;;;;5048746;28;20430;-69
2023/08/08 08:50:57;;;;;;;4.68;3.42;;;17.40;88.40;;;;;;5047219;28;22110;-68
2023/08/08 08:53:24;;;;;;;5.78;3.72;;;17.30;88.40;;;;;;5051639;28;20892;-67
2023/08/08 08:55:52;;;;;;;5.53;3.60;;;17.20;89.40;;;;;;5047575;28;20450;-69
2023/08/08 08:58:20;;;;;;;3.95;3.05;;;17.10;89.70;;;;;;5054005;28;20425;-68
2023/08/08 09:00:48;;;;;;;4.90;3.70;;;17.10;89.30;;;;;;5061478;28;20460;-68
2023/08/08 09:03:16;;;;;;;5.05;3.70;;;17.20;89.50;;;;;;5064477;28;20450;-68
2023/08/08 09:05:44;;;;;;;5.43;3.80;;;17.20;89.90;;;;;;5056496;28;20436;-70
2023/08/08 09:08:12;;;;;;;5.35;3.40;;;17.30;88.90;;;;;;5053487;28;20893;-70
2023/08/08 09:10:38;;;;;;;4.63;3.90;;;17.40;88.50;;;;;;5052431;28;20540;-70
2023/08/08 09:13:05;;;;;;;4.57;3.40;;;17.50;87.40;;;;;;5055108;28;20518;-70
2023/08/08 09:15:33;;;;;;;6.00;3.53;;;17.60;87.30;;;;;;5059028;28;20433;-70
2023/08/08 09:18:00;;;;;;;4.22;3.55;;;17.70;87.80;;;;;;5054324;28;20435;-70
2023/08/08 09:20:29;;;;;;;5.15;3.40;;;17.80;86.40;;;;;;5059621;28;21008;-70
2023/08/08 09:22:55;;;;;;;6.00;3.70;;;17.90;86.30;;;;;;5053042;28;20424;-70
2023/08/08 09:25:24;;;;;;;5.45;3.60;;;17.90;85.40;;;;;;5056000;28;20429;-68
2023/08/08 09:27:52;;;;;;;5.68;3.50;;;18.00;85.80;;;;;;5055480;28;20433;-70
2023/08/08 09:30:19;;;;;;;5.97;3.20;;;18.00;82.90;;;;;;5049845;28;20494;-70
2023/08/08 09:32:46;;;;;;;4.82;3.60;;;17.90;82.90;;;;;;5052200;28;20432;-70
2023/08/08 09:35:13;;;;;;;4.13;2.92;;;17.90;82.00;;;;;;5058267;28;20883;-70
2023/08/08 09:37:40;;;;;;;5.53;3.42;;;17.80;82.00;;;;;;5057297;28;20444;-70
2023/08/08 09:40:09;;;;;;;5.53;3.40;;;17.90;83.40;;;;;;5056454;28;20882;-69
2023/08/08 09:42:37;;;;;;;6.78;3.25;;;17.90;82.30;;;;;;5058624;28;20429;-70
2023/08/08 09:45:05;;;;;;;4.50;3.40;;;18.10;81.60;;;;;;5056300;28;20442;-71
2023/08/08 09:47:32;;;;;;;6.03;3.05;;;18.20;81.10;;;;;;5062983;28;20480;-70
2023/08/08 09:50:00;;;;;;;5.32;2.75;;;18.30;81.30;;;;;;5053274;28;20835;-70
2023/08/08 09:52:29;;;;;;;3.92;3.00;;;18.40;81.00;;;;;;5054169;28;20427;-70
2023/08/08 09:54:56;;;;;;;3.80;2.50;;;18.50;79.90;;;;;;5054838;28;20454;-70
2023/08/08 09:57:23;;;;;;;5.65;3.20;;;18.60;79.40;;;;;;5057078;28;20424;-70
2023/08/08 09:59:52;;;;;;;5.13;2.67;;;18.70;79.00;;;;;;5056711;28;20817;-70
2023/08/08 10:02:20;;;;;;;4.25;2.80;;;18.70;78.20;;;;;;5053038;28;20437;-70
2023/08/08 10:04:47;;;;;;;5.47;3.00;;;18.70;78.00;;;;;;5054821;28;20413;-70
2023/08/08 10:07:14;;;;;;;3.83;2.60;;;18.60;78.20;;;;;;5045288;28;20847;-70
2023/08/08 10:09:41;;;;;;;3.30;2.70;;;18.50;77.60;;;;;;5051771;28;20493;-68
2023/08/08 10:12:09;;;;;;;4.20;2.45;;;18.40;78.40;;;;;;5052667;28;20427;-71
2023/08/08 10:14:37;;;;;;;4.50;2.88;;;18.20;79.70;;;;;;5052931;28;20536;-71
2023/08/08 10:17:06;;;;;;;4.15;2.60;;;18.20;79.90;;;;;;5062259;28;20431;-69
2023/08/08 10:19:33;;;;;;;4.57;2.80;;;18.30;79.80;;;;;;5057416;28;20440;-71
2023/08/08 10:22:03;;;;;;;5.73;3.20;;;18.50;77.60;;;;;;5052302;28;20459;-71
2023/08/08 10:24:34;;;;;;;4.03;3.00;;;18.80;77.80;;;;;;5051260;28;20748;-71
2023/08/08 10:27:02;;;;;;;4.85;3.00;;;19.00;75.30;;;;;;5049485;28;20425;-71
2023/08/08 10:29:32;;;;;;;4.28;2.50;;;19.00;73.70;;;;;;5056902;28;20569;-71
2023/08/08 10:32:01;;;;;;;5.70;2.70;;;19.10;73.20;;;;;;5045782;28;20418;-71
2023/08/08 10:34:38;;;;;;;3.90;2.60;;;19.10;73.50;;;;;;5056183;28;20425;-70
2023/08/08 10:37:06;;;;;;;3.70;2.42;;;19.20;72.70;;;;;;5052663;28;20416;-69
2023/08/08 10:39:33;;;;;;;3.45;2.50;;;19.30;72.40;;;;;;5052254;28;20439;-68
2023/08/08 10:42:04;;;;;;;3.90;2.20;;;19.40;73.50;;;;;;5050013;28;20433;-71
2023/08/08 10:44:32;;;;;;;4.80;2.00;;;19.70;71.50;;;;;;5049170;28;20427;-69
2023/08/08 10:47:00;;;;;;;4.20;2.35;;;19.70;70.00;;;;;;5055813;28;20450;-69
2023/08/08 10:49:29;;;;;;;3.75;2.40;;;19.60;69.50;;;;;;5050933;28;20427;-70
2023/08/08 10:52:02;;;;;;;4.80;2.70;;;19.50;71.00;;;;;;5053042;28;20427;-70
2023/08/08 10:54:30;;;;;;;5.70;2.60;;;19.50;71.70;;;;;;5051788;28;20516;-70
2023/08/08 10:56:59;;;;;;;4.22;1.90;;;19.50;71.10;;;;;;5051635;28;20916;-70
2023/08/08 10:59:29;;;;;;;3.30;2.10;;;19.40;70.10;;;;;;5047972;28;20432;-70
2023/08/08 11:01:56;;;;;;;4.97;2.38;;;19.30;69.10;;;;;;5053665;28;20415;-70
2023/08/08 11:04:25;;;;;;;4.55;2.30;;;19.20;69.50;;;;;;5053272;28;20551;-70
2023/08/08 11:06:56;;;;;;;4.00;2.15;;;19.20;70.70;;;;;;5055583;28;20477;-70
2023/08/08 11:09:26;;;;;;;3.70;1.90;;;19.20;70.40;;;;;;5047252;28;20570;-70
2023/08/08 11:11:52;;;;;;;5.07;2.42;;;19.10;71.20;;;;;;5055836;28;20419;-70
2023/08/08 11:14:21;;;;;;;3.63;1.70;;;19.00;71.30;;;;;;5053799;28;20431;-70
2023/08/08 11:16:49;;;;;;;3.83;1.90;;;19.10;71.10;;;;;;5051812;28;20436;-70
2023/08/08 11:19:18;;;;;;;4.25;2.00;;;19.00;71.70;;;;;;5055435;28;20440;-70
2023/08/08 11:21:46;;;;;;;3.05;1.90;;;19.00;70.30;;;;;;5050395;28;20428;-70
2023/08/08 11:24:14;;;;;;;4.20;2.20;;;19.00;73.60;;;;;;5053655;28;20878;-70
2023/08/08 11:26:43;;;;;;;2.70;1.90;;;19.10;71.70;;;;;;5049847;28;20428;-70
2023/08/08 11:29:10;;;;;;;6.22;2.53;;;19.20;70.00;;;;;;5052703;28;20511;-70
2023/08/08 11:31:38;;;;;;;4.72;2.20;;;19.30;70.60;;;;;;5048356;28;20433;-70
2023/08/08 11:34:05;;;;;;;4.30;2.27;;;19.40;68.80;;;;;;5046393;28;20425;-70
2023/08/08 11:36:32;;;;;;;4.65;2.25;;;19.50;69.10;;;;;;5054130;28;20527;-68
2023/08/08 11:39:03;;;;;;;3.08;1.90;;;19.70;69.00;;;;;;5049146;28;20439;-70
2023/08/08 11:41:31;;;;;;;3.67;1.80;;;20.00;68.10;;;;;;5056086;28;20467;-68
2023/08/08 11:43:59;;;;;;;4.97;1.77;;;20.10;67.90;;;;;;5050440;28;20454;-68
2023/08/08 11:46:27;;;;;;;4.57;2.20;;;20.30;66.20;;;;;;5047104;28;20477;-69
2023/08/08 11:48:53;;;;;;;5.18;1.90;;;20.50;64.80;;;;;;5050032;28;20424;-69
2023/08/08 11:51:20;;;;;;;4.15;1.98;;;20.50;65.10;;;;;;5052647;28;20441;-68
2023/08/08 11:53:51;;;;;;;4.70;2.40;;;20.60;61.80;;;;;;5047620;28;20437;-70
2023/08/08 11:56:18;;;;;;;4.32;1.98;;;20.50;62.10;;;;;;5053244;28;20521;-69
2023/08/08 11:58:47;;;;;;;4.78;2.30;;;20.30;61.60;;;;;;5047220;28;20446;-69
2023/08/08 12:01:14;;;;;;;4.43;2.30;;;20.00;63.30;;;;;;5050672;28;20429;-69
2023/08/08 12:03:41;;;;;;;4.63;2.30;;;19.70;65.40;;;;;;5046812;28;20732;-70
2023/08/08 12:06:13;;;;;;;3.97;2.10;;;19.50;66.00;;;;;;5043814;28;20444;-69
2023/08/08 12:08:42;;;;;;;4.10;1.70;;;19.40;66.50;;;;;;5055961;28;20893;-69
2023/08/08 12:11:10;;;;;;;2.90;1.70;;;19.30;66.10;;;;;;5049050;28;20498;-70
2023/08/08 12:13:39;;;;;;;2.70;1.67;;;19.20;66.00;;;;;;5042823;28;20813;-69
2023/08/08 12:16:08;;;;;;;3.72;2.00;;;19.20;66.10;;;;;;5051249;28;20441;-69
2023/08/08 12:18:37;;;;;;;2.35;1.60;;;19.30;66.10;;;;;;5051173;28;20417;-69
2023/08/08 12:21:04;;;;;;;3.20;1.40;;;19.30;66.30;;;;;;5050720;28;20439;-70
2023/08/08 12:23:32;;;;;;;3.22;1.75;;;19.40;66.70;;;;;;5054431;28;20442;-69
2023/08/08 12:25:59;;;;;;;2.60;1.40;;;19.60;65.10;;;;;;5052099;28;20564;-69
2023/08/08 12:28:26;;;;;;;4.88;1.90;;;19.60;63.60;;;;;;5053683;28;20428;-69
2023/08/08 12:30:52;;;;;;;3.63;1.70;;;19.60;62.10;;;;;;5053245;28;20408;-69
2023/08/08 12:33:21;;;;;;;4.38;1.50;;;19.60;62.10;;;;;;5044055;28;20437;-70
2023/08/08 12:35:48;;;;;;;5.65;1.90;;;19.50;62.90;;;;;;5054663;28;20546;-70
2023/08/08 12:38:15;;;;;;;6.20;2.25;;;19.50;63.40;;;;;;5054961;28;22058;-69
2023/08/08 12:40:42;;;;;;;6.45;2.30;;;19.50;64.20;;;;;;5053797;28;20421;-70
2023/08/08 12:43:13;;;;;;;3.28;1.70;;;19.40;66.10;;;;;;5052926;28;20891;-70
2023/08/08 12:45:39;;;;;;;4.30;1.73;;;19.50;65.70;;;;;;5055652;28;20526;-69
2023/08/08 12:48:06;;;;;;;4.70;1.90;;;19.50;67.10;;;;;;5047988;28;20456;-70
2023/08/08 12:50:34;;;;;;;5.25;2.00;;;19.50;68.30;;;;;;5054961;28;20687;-70